createdAt,value
2018-02-02T00:00:47.013Z,93.30
2018-02-02T00:03:13.048Z,93.26
2018-02-02T00:05:39.236Z,92.74
2018-02-02T00:08:05.315Z,92.40
2018-02-02T00:10:31.371Z,92.30
2018-02-02T00:12:57.458Z,92.40
2018-02-02T00:15:23.550Z,92.18
2018-02-02T00:17:49.576Z,92.42
2018-02-02T00:20:15.616Z,92.67
2018-02-02T00:22:41.664Z,92.98
2018-02-02T00:25:07.688Z,92.75
2018-02-02T00:27:33.724Z,92.97
2018-02-02T00:29:59.791Z,93.12
2018-02-02T00:32:25.889Z,93.34
2018-02-02T00:34:51.948Z,93.60
2018-02-02T00:37:18.036Z,93.85
2018-02-02T00:39:44.068Z,93.95
2018-02-02T00:42:10.142Z,93.88
2018-02-02T00:44:36.183Z,93.74
2018-02-02T00:47:02.192Z,93.48
2018-02-02T00:49:28.256Z,93.42
2018-02-02T00:52:00.249Z,92.34
2018-02-02T00:54:26.265Z,91.72
2018-02-02T00:56:52.270Z,92.06
2018-02-02T00:59:18.321Z,92.12
2018-02-02T01:01:44.298Z,92.23
2018-02-02T01:04:10.342Z,92.22
2018-02-02T01:06:36.372Z,92.19
2018-02-02T01:09:02.497Z,92.50
2018-02-02T01:11:28.465Z,92.58
2018-02-02T01:13:54.480Z,92.62
2018-02-02T01:16:20.534Z,92.38
2018-02-02T01:18:46.577Z,92.40
2018-02-02T01:21:12.561Z,92.19
2018-02-02T01:23:38.593Z,92.19
2018-02-02T01:26:04.654Z,92.10
2018-02-02T01:28:30.684Z,92.51
2018-02-02T01:30:56.712Z,92.98
2018-02-02T01:33:22.757Z,92.55
2018-02-02T01:35:48.822Z,92.45
2018-02-02T01:38:14.872Z,92.52
2018-02-02T01:40:40.880Z,92.70
2018-02-02T01:43:06.960Z,92.88
2018-02-02T01:45:32.997Z,92.67
2018-02-02T01:48:11.322Z,92.67
2018-02-02T01:50:37.399Z,93.30
2018-02-02T01:53:03.478Z,93.46
2018-02-02T01:55:29.513Z,93.64
2018-02-02T01:57:55.623Z,93.60
2018-02-02T02:00:21.657Z,93.57
2018-02-02T02:02:47.721Z,93.50
2018-02-02T02:05:13.757Z,93.61
2018-02-02T02:07:39.771Z,93.41
2018-02-02T02:10:05.813Z,93.60
2018-02-02T02:12:31.851Z,93.30
2018-02-02T02:14:57.861Z,93.22
2018-02-02T02:17:23.878Z,93.25
2018-02-02T02:19:49.915Z,93.25
2018-02-02T02:22:15.924Z,93.04
2018-02-02T02:24:41.925Z,93.16
2018-02-02T02:27:08.000Z,93.18
2018-02-02T02:29:34.052Z,93.14
2018-02-02T02:32:00.155Z,93.18
2018-02-02T02:34:26.172Z,93.17
2018-02-02T02:36:52.160Z,93.12
2018-02-02T02:39:18.252Z,93.30
2018-02-02T02:41:44.288Z,93.01
2018-02-02T02:44:10.321Z,93.16
2018-02-02T02:46:36.324Z,92.96
2018-02-02T02:49:02.329Z,92.99
2018-02-02T02:51:28.385Z,92.97
2018-02-02T02:53:54.385Z,92.93
2018-02-02T02:56:20.400Z,92.76
2018-02-02T02:58:46.388Z,92.73
2018-02-02T03:01:12.401Z,92.53
2018-02-02T03:03:38.448Z,92.11
2018-02-02T03:06:04.476Z,91.93
2018-02-02T03:08:30.548Z,91.64
2018-02-02T03:10:56.568Z,91.49
2018-02-02T03:13:22.581Z,91.38
2018-02-02T03:15:48.545Z,91.62
2018-02-02T03:18:14.525Z,91.66
2018-02-02T03:20:40.496Z,91.87
2018-02-02T03:23:06.532Z,92.07
2018-02-02T03:25:32.524Z,92.02
2018-02-02T03:27:58.561Z,91.83
2018-02-02T03:30:24.589Z,91.69
2018-02-02T03:32:50.592Z,91.64
2018-02-02T03:35:16.556Z,91.46
2018-02-02T03:37:42.518Z,91.58
2018-02-02T03:40:08.533Z,91.52
2018-02-02T03:42:34.488Z,91.47
2018-02-02T03:45:00.544Z,91.26
2018-02-02T03:47:26.528Z,91.32
2018-02-02T03:49:52.560Z,91.33
2018-02-02T03:52:18.593Z,91.58
2018-02-02T03:54:44.568Z,91.33
2018-02-02T03:57:10.582Z,91.34
2018-02-02T03:59:36.542Z,91.33
2018-02-02T04:02:02.553Z,91.13
2018-02-02T04:04:28.595Z,91.17
2018-02-02T04:06:54.561Z,91.82
2018-02-02T04:09:20.521Z,92.13
2018-02-02T04:11:46.535Z,92.21
2018-02-02T04:14:12.503Z,92.16
2018-02-02T04:16:38.544Z,92.79
2018-02-02T04:19:04.532Z,93.53
2018-02-02T04:21:30.616Z,93.73
2018-02-02T04:23:56.684Z,93.89
2018-02-02T04:26:22.717Z,94.03
2018-02-02T04:28:48.733Z,93.17
2018-02-02T04:31:14.765Z,92.11
2018-02-02T04:33:40.804Z,91.55
2018-02-02T04:39:06.925Z,91.46
2018-02-02T04:41:32.932Z,91.68
2018-02-02T04:43:58.896Z,91.66
2018-02-02T04:46:24.940Z,92.08
2018-02-02T04:48:50.982Z,92.03
2018-02-02T04:51:17.019Z,91.71
2018-02-02T04:53:43.152Z,91.90
2018-02-02T04:56:09.168Z,92.05
2018-02-02T04:58:35.472Z,92.14
2018-02-02T05:01:01.466Z,92.08
2018-02-02T05:03:27.557Z,92.46
2018-02-02T05:05:53.554Z,92.60
2018-02-02T05:08:19.650Z,93.21
2018-02-02T05:10:45.688Z,93.47
2018-02-02T05:13:11.685Z,92.96
2018-02-02T05:15:37.687Z,92.41
2018-02-02T05:18:03.709Z,91.99
2018-02-02T05:20:29.728Z,92.50
2018-02-02T05:22:56.158Z,93.84
2018-02-02T05:25:22.212Z,92.27
2018-02-02T05:27:48.193Z,92.14
2018-02-02T05:30:14.206Z,92.98
2018-02-02T05:32:40.185Z,93.18
2018-02-02T05:35:06.152Z,93.39
2018-02-02T05:37:32.152Z,92.83
2018-02-02T05:39:58.133Z,91.84
2018-02-02T05:42:24.141Z,91.60
2018-02-02T05:44:50.125Z,91.63
2018-02-02T05:47:16.504Z,91.06
2018-02-02T05:49:42.497Z,90.39
2018-02-02T05:52:08.545Z,91.06
2018-02-02T05:54:34.580Z,91.21
2018-02-02T05:57:00.583Z,91.01
2018-02-02T05:59:26.573Z,90.71
2018-02-02T06:01:52.613Z,89.91
2018-02-02T06:04:18.517Z,90.08
2018-02-02T06:06:44.532Z,90.84
2018-02-02T06:09:10.501Z,91.56
2018-02-02T06:11:36.480Z,92.07
2018-02-02T06:14:02.456Z,92.51
2018-02-02T06:16:28.490Z,92.75
2018-02-02T06:18:54.520Z,92.73
2018-02-02T06:21:20.504Z,92.59
2018-02-02T06:23:46.595Z,92.26
2018-02-02T06:26:12.617Z,92.27
2018-02-02T06:28:38.624Z,92.32
2018-02-02T06:31:04.659Z,92.35
2018-02-02T06:33:30.650Z,92.33
2018-02-02T06:35:56.664Z,92.44
2018-02-02T06:38:22.673Z,92.53
2018-02-02T06:40:48.672Z,92.96
2018-02-02T06:43:14.725Z,93.44
2018-02-02T06:45:40.799Z,93.23
2018-02-02T06:48:06.820Z,93.33
2018-02-02T06:50:32.836Z,93.39
2018-02-02T06:52:58.828Z,94.00
2018-02-02T06:55:24.891Z,93.82
2018-02-02T06:57:50.978Z,93.91
2018-02-02T07:00:16.992Z,93.90
2018-02-02T07:02:43.097Z,93.85
2018-02-02T07:05:09.159Z,93.84
2018-02-02T07:07:35.177Z,94.05
2018-02-02T07:10:01.254Z,93.74
2018-02-02T07:12:27.277Z,93.22
2018-02-02T07:14:53.292Z,93.19
2018-02-02T07:17:19.296Z,92.79
2018-02-02T07:19:45.317Z,92.58
2018-02-02T07:22:11.324Z,92.58
2018-02-02T07:24:37.386Z,92.37
2018-02-02T07:27:03.448Z,92.75
2018-02-02T07:29:29.468Z,92.72
2018-02-02T07:31:55.530Z,92.90
2018-02-02T07:34:21.531Z,93.02
2018-02-02T07:36:47.933Z,92.85
2018-02-02T07:39:13.938Z,92.44
2018-02-02T07:41:39.902Z,92.64
2018-02-02T07:44:05.931Z,92.02
2018-02-02T07:46:31.956Z,92.09
2018-02-02T07:48:57.992Z,91.28
2018-02-02T07:51:24.074Z,90.68
2018-02-02T07:53:50.133Z,90.81
2018-02-02T07:56:16.140Z,91.10
2018-02-02T07:58:42.105Z,90.51
2018-02-02T08:01:14.265Z,90.17
2018-02-02T08:03:40.326Z,89.49
2018-02-02T08:06:06.360Z,89.81
2018-02-02T08:08:32.381Z,89.75
2018-02-02T08:10:58.401Z,89.97
2018-02-02T08:13:24.422Z,89.59
2018-02-02T08:15:50.401Z,89.98
2018-02-02T08:18:16.451Z,89.41
2018-02-02T08:20:42.469Z,89.79
2018-02-02T08:23:08.485Z,89.79
2018-02-02T08:25:34.517Z,89.43
2018-02-02T08:28:00.574Z,89.65
2018-02-02T08:30:26.602Z,89.75
2018-02-02T08:32:52.606Z,90.01
2018-02-02T08:35:18.865Z,89.60
2018-02-02T08:37:45.265Z,89.22
2018-02-02T08:40:11.309Z,89.71
2018-02-02T08:42:37.385Z,89.61
2018-02-02T08:45:03.651Z,89.40
2018-02-02T08:47:29.597Z,89.79
2018-02-02T08:49:55.550Z,89.61
2018-02-02T08:52:21.601Z,88.68
2018-02-02T08:54:47.705Z,88.99
2018-02-02T08:57:13.710Z,89.78
2018-02-02T08:59:39.805Z,89.33
2018-02-02T09:02:05.841Z,89.93
2018-02-02T09:04:31.940Z,90.37
2018-02-02T09:06:58.258Z,90.46
2018-02-02T09:09:24.414Z,90.11
2018-02-02T09:11:50.402Z,89.60
2018-02-02T09:14:16.511Z,89.50
2018-02-02T09:16:42.533Z,89.58
2018-02-02T09:19:08.618Z,88.85
2018-02-02T09:21:34.569Z,88.89
2018-02-02T09:24:00.598Z,87.50
2018-02-02T09:26:26.577Z,87.89
2018-02-02T09:28:52.606Z,87.11
2018-02-02T09:31:18.566Z,86.29
2018-02-02T09:33:44.620Z,86.55
2018-02-02T09:36:10.653Z,86.25
2018-02-02T09:38:36.705Z,85.71
2018-02-02T09:41:02.762Z,86.02
2018-02-02T09:43:28.780Z,85.52
2018-02-02T09:45:54.876Z,85.40
2018-02-02T09:48:20.853Z,85.56
2018-02-02T09:50:46.862Z,84.29
2018-02-02T09:53:12.981Z,84.04
2018-02-02T09:55:39.064Z,83.10
2018-02-02T09:58:05.080Z,83.74
2018-02-02T10:00:31.093Z,83.36
2018-02-02T10:02:57.160Z,83.88
2018-02-02T10:05:23.306Z,82.96
2018-02-02T10:07:49.353Z,83.92
2018-02-02T10:10:15.364Z,82.05
2018-02-02T10:12:41.398Z,83.14
2018-02-02T10:15:07.412Z,83.10
2018-02-02T10:17:33.483Z,83.02
2018-02-02T10:19:59.582Z,82.38
2018-02-02T10:22:25.709Z,82.24
2018-02-02T10:24:51.808Z,83.21
2018-02-02T10:27:17.825Z,83.18
2018-02-02T10:29:43.873Z,82.83
2018-02-02T10:32:09.917Z,82.68
2018-02-02T10:34:35.951Z,81.16
2018-02-02T10:37:02.037Z,82.02
2018-02-02T10:39:28.317Z,81.94
2018-02-02T10:41:54.379Z,81.53
2018-02-02T10:44:20.392Z,80.49
2018-02-02T10:46:46.449Z,81.53
2018-02-02T10:49:12.488Z,81.17
2018-02-02T10:51:38.556Z,80.38
2018-02-02T10:54:04.611Z,80.09
2018-02-02T10:56:30.668Z,80.26
2018-02-02T10:58:56.685Z,80.98
2018-02-02T11:01:28.925Z,78.58
2018-02-02T11:04:04.980Z,77.85
2018-02-02T11:06:30.976Z,77.59
2018-02-02T11:08:57.176Z,76.90
2018-02-02T11:11:23.257Z,78.53
2018-02-02T11:13:49.288Z,77.20
2018-02-02T11:16:15.305Z,76.36
2018-02-02T11:18:41.335Z,75.63
2018-02-02T11:21:07.442Z,76.08
2018-02-02T11:23:33.457Z,75.75
2018-02-02T11:25:59.485Z,74.63
2018-02-02T11:28:25.540Z,74.55
2018-02-02T11:30:51.549Z,74.59
2018-02-02T11:33:17.603Z,76.05
2018-02-02T11:35:43.666Z,74.22
2018-02-02T11:38:09.712Z,74.17
2018-02-02T11:40:35.771Z,74.71
2018-02-02T11:43:01.885Z,74.80
2018-02-02T11:45:27.929Z,75.30
2018-02-02T11:47:53.956Z,75.55
2018-02-02T11:50:20.065Z,75.72
2018-02-02T11:52:46.134Z,74.78
2018-02-02T11:55:12.166Z,76.88
2018-02-02T11:57:38.237Z,77.39
2018-02-02T12:00:04.312Z,76.64
2018-02-02T12:02:30.368Z,76.23
2018-02-02T12:04:56.404Z,76.44
2018-02-02T12:07:22.705Z,76.55
2018-02-02T12:09:48.743Z,75.90
2018-02-02T12:12:14.800Z,76.93
2018-02-02T12:14:40.904Z,77.32
2018-02-02T12:17:06.961Z,77.65
2018-02-02T12:19:33.042Z,76.97
2018-02-02T12:22:01.072Z,76.39
2018-02-02T12:24:28.976Z,76.13
2018-02-02T12:30:09.741Z,75.23
2018-02-02T12:32:41.954Z,75.69
2018-02-02T12:35:17.958Z,75.71
2018-02-02T12:37:44.023Z,75.33
2018-02-02T12:40:10.113Z,76.05
2018-02-02T12:42:36.185Z,77.38
2018-02-02T12:45:02.274Z,77.55
2018-02-02T12:47:34.434Z,78.29
2018-02-02T12:50:05.993Z,77.38
2018-02-02T12:52:32.012Z,77.10
2018-02-02T12:54:58.040Z,77.32
2018-02-02T12:57:24.186Z,77.61
2018-02-02T12:59:50.252Z,78.03
2018-02-02T13:02:16.318Z,77.44
2018-02-02T13:04:42.289Z,77.63
2018-02-02T13:07:08.364Z,77.81
2018-02-02T13:09:34.405Z,77.66
2018-02-02T13:12:00.431Z,78.08
2018-02-02T13:14:26.393Z,78.43
2018-02-02T13:16:52.388Z,79.22
2018-02-02T13:19:18.442Z,78.88
2018-02-02T13:21:44.533Z,79.61
2018-02-02T13:24:10.597Z,80.67
2018-02-02T13:26:36.591Z,80.39
2018-02-02T13:29:02.662Z,81.24
2018-02-02T13:31:28.724Z,81.10
2018-02-02T13:33:54.756Z,81.81
2018-02-02T13:36:20.748Z,82.32
2018-02-02T13:38:46.808Z,82.12
2018-02-02T13:41:12.901Z,82.44
2018-02-02T13:43:38.985Z,82.72
2018-02-02T13:46:05.020Z,83.26
2018-02-02T13:48:31.089Z,83.81
2018-02-02T13:50:57.173Z,84.62
2018-02-02T13:53:23.344Z,84.89
2018-02-02T13:55:49.376Z,83.61
2018-02-02T13:58:15.385Z,83.45
2018-02-02T14:00:41.476Z,83.48
2018-02-02T14:03:07.635Z,83.29
2018-02-02T14:05:33.693Z,83.64
2018-02-02T14:07:59.808Z,83.27
2018-02-02T14:10:25.849Z,83.29
2018-02-02T14:12:51.938Z,83.66
2018-02-02T14:15:17.952Z,83.54
2018-02-02T14:17:43.968Z,83.37
2018-02-02T14:20:10.148Z,83.81
2018-02-02T14:22:36.172Z,84.21
2018-02-02T14:25:02.348Z,83.43
2018-02-02T14:27:28.353Z,83.67
2018-02-02T14:29:54.373Z,84.51
2018-02-02T14:32:20.460Z,84.08
2018-02-02T14:34:46.489Z,84.07
2018-02-02T14:37:12.524Z,84.19
2018-02-02T14:39:38.570Z,84.84
2018-02-02T14:42:04.605Z,84.40
2018-02-02T14:44:30.675Z,84.72
2018-02-02T14:46:56.783Z,84.89
2018-02-02T14:49:22.827Z,84.62
2018-02-02T14:51:48.992Z,85.58
2018-02-02T14:54:15.043Z,85.54
2018-02-02T14:56:41.147Z,85.76
2018-02-02T14:59:07.246Z,86.15
2018-02-02T15:01:33.384Z,86.95
2018-02-02T15:06:32.115Z,87.33
2018-02-02T15:08:58.239Z,87.62
2018-02-02T15:11:24.349Z,87.85
2018-02-02T15:13:50.414Z,87.82
2018-02-02T15:16:16.475Z,88.35
2018-02-02T15:18:42.871Z,88.80
2018-02-02T15:21:08.954Z,88.64
2018-02-02T15:23:35.048Z,88.74
2018-02-02T15:26:01.087Z,88.82
2018-02-02T15:28:27.124Z,89.50
2018-02-02T15:30:53.366Z,89.61
2018-02-02T15:33:19.601Z,89.86
2018-02-02T15:35:45.691Z,89.92
2018-02-02T15:38:11.784Z,90.22
2018-02-02T15:40:38.543Z,90.17
2018-02-02T15:43:04.611Z,90.54
2018-02-02T15:45:30.700Z,90.31
2018-02-02T15:47:56.980Z,90.52
2018-02-02T15:50:23.041Z,90.42
2018-02-02T15:52:49.473Z,90.47
2018-02-02T15:55:15.565Z,90.51
2018-02-02T15:57:41.641Z,90.48
2018-02-02T16:00:07.744Z,90.59
2018-02-02T16:02:33.762Z,90.73
2018-02-02T16:04:59.899Z,90.78
2018-02-02T16:07:25.928Z,90.99
2018-02-02T16:09:52.166Z,91.13
2018-02-02T16:12:18.316Z,91.46
2018-02-02T16:14:44.370Z,91.56
2018-02-02T16:17:10.434Z,91.45
2018-02-02T16:19:36.496Z,91.25
2018-02-02T16:24:35.470Z,91.32
2018-02-02T16:27:01.517Z,91.47
2018-02-02T16:29:27.589Z,91.47
2018-02-02T16:31:53.641Z,91.55
2018-02-02T16:34:19.708Z,91.43
2018-02-02T16:36:46.110Z,91.11
2018-02-02T16:39:12.232Z,91.07
2018-02-02T16:41:38.289Z,91.23
2018-02-02T16:44:04.344Z,91.10
2018-02-02T16:46:30.413Z,91.21
2018-02-02T16:48:56.438Z,91.06
2018-02-02T16:51:22.543Z,90.91
2018-02-02T16:53:48.605Z,90.90
2018-02-02T16:56:14.642Z,90.85
2018-02-02T16:58:41.573Z,90.58
2018-02-02T17:01:07.730Z,90.53
2018-02-02T17:03:34.572Z,90.64
2018-02-02T17:06:00.821Z,90.58
2018-02-02T17:08:27.141Z,90.50
2018-02-02T17:10:53.718Z,89.98
2018-02-02T17:13:19.785Z,90.08
2018-02-02T17:15:45.856Z,89.93
2018-02-02T17:18:11.895Z,90.00
2018-02-02T17:20:37.984Z,89.89
2018-02-02T17:23:04.140Z,90.25
2018-02-02T17:25:30.210Z,89.95
2018-02-02T17:27:56.279Z,89.96
2018-02-02T17:30:22.428Z,89.88
2018-02-02T17:32:48.467Z,89.82
2018-02-02T17:35:14.486Z,89.97
2018-02-02T17:37:40.561Z,90.11
2018-02-02T17:40:06.673Z,90.20
2018-02-02T17:42:35.151Z,90.53
2018-02-02T17:45:01.321Z,90.53
2018-02-02T17:47:27.374Z,90.23
2018-02-02T17:49:53.452Z,90.12
2018-02-02T17:54:52.498Z,90.01
2018-02-02T17:57:18.518Z,90.02
2018-02-02T17:59:44.598Z,90.48
2018-02-02T18:02:10.734Z,90.59
2018-02-02T18:04:36.872Z,90.53
2018-02-02T18:07:02.972Z,90.32
2018-02-02T18:09:29.042Z,90.97
2018-02-02T18:11:55.115Z,91.05
2018-02-02T18:14:21.141Z,90.45
2018-02-02T18:16:47.201Z,90.46
2018-02-02T18:19:13.254Z,90.71
2018-02-02T18:21:39.309Z,90.86
2018-02-02T18:24:05.643Z,91.13
2018-02-02T18:26:31.714Z,91.14
2018-02-02T18:28:57.747Z,90.93
2018-02-02T18:31:23.924Z,90.72
2018-02-02T18:33:49.986Z,91.16
2018-02-02T18:36:16.056Z,91.08
2018-02-02T18:38:42.683Z,90.34
2018-02-02T18:41:08.755Z,90.33
2018-02-02T18:43:34.749Z,90.27
2018-02-02T18:46:00.839Z,90.15
2018-02-02T18:48:26.874Z,90.29
2018-02-02T18:50:52.915Z,90.58
2018-02-02T18:53:19.000Z,90.92
2018-02-02T18:55:45.041Z,92.39
2018-02-02T18:58:11.075Z,91.31
2018-02-02T19:00:37.114Z,91.43
2018-02-02T19:03:03.140Z,91.19
2018-02-02T19:05:29.175Z,90.94
2018-02-02T19:07:55.224Z,90.97
2018-02-02T19:10:21.261Z,91.53
2018-02-02T19:12:47.304Z,91.18
2018-02-02T19:15:13.360Z,90.93
2018-02-02T19:17:39.842Z,91.47
2018-02-02T19:20:05.853Z,91.47
2018-02-02T19:22:31.896Z,91.75
2018-02-02T19:24:57.912Z,92.04
2018-02-02T19:27:24.227Z,92.03
2018-02-02T19:29:50.288Z,91.41
2018-02-02T19:32:16.476Z,91.72
2018-02-02T19:34:42.549Z,90.66
2018-02-02T19:37:08.628Z,90.50
2018-02-02T19:39:34.687Z,90.36
2018-02-02T19:42:00.705Z,90.64
2018-02-02T19:44:26.800Z,90.37
2018-02-02T19:46:53.515Z,90.52
2018-02-02T19:49:19.675Z,89.98
2018-02-02T19:51:45.681Z,89.52
2018-02-02T19:54:11.763Z,89.62
2018-02-02T19:56:37.825Z,89.73
2018-02-02T19:59:03.917Z,89.75
2018-02-02T20:01:29.981Z,89.87
2018-02-02T20:03:56.045Z,89.72
2018-02-02T20:06:22.162Z,89.75
2018-02-02T20:08:48.823Z,90.09
2018-02-02T20:11:14.882Z,89.98
2018-02-02T20:13:41.067Z,90.21
2018-02-02T20:16:07.161Z,89.87
2018-02-02T20:18:33.672Z,89.48
2018-02-02T20:21:03.242Z,89.96
2018-02-02T20:23:29.483Z,90.45
2018-02-02T20:25:55.564Z,89.26
2018-02-02T20:28:21.629Z,88.81
2018-02-02T20:30:47.871Z,88.67
2018-02-02T20:33:13.927Z,89.06
2018-02-02T20:35:40.063Z,88.30
2018-02-02T20:38:06.024Z,88.11
2018-02-02T20:40:32.021Z,88.42
2018-02-02T20:42:58.104Z,87.89
2018-02-02T20:45:24.145Z,88.05
2018-02-02T20:47:51.142Z,88.36
2018-02-02T20:50:17.178Z,88.47
2018-02-02T20:52:43.494Z,88.58
2018-02-02T20:55:09.605Z,89.18
2018-02-02T20:57:35.654Z,89.58
2018-02-02T21:00:01.711Z,89.74
2018-02-02T21:02:27.875Z,90.08
2018-02-02T21:04:54.481Z,90.38
2018-02-02T21:07:21.029Z,90.49
2018-02-02T21:09:47.134Z,90.78
2018-02-02T21:12:13.302Z,90.83
2018-02-02T21:14:39.351Z,90.83
2018-02-02T21:17:05.354Z,90.96
2018-02-02T21:19:31.426Z,91.29
2018-02-02T21:21:57.461Z,91.45
2018-02-02T21:24:23.862Z,91.46
2018-02-02T21:26:49.878Z,91.56
2018-02-02T21:29:15.951Z,91.56
2018-02-02T21:31:42.065Z,91.93
2018-02-02T21:34:08.141Z,91.83
2018-02-02T21:36:34.235Z,91.68
2018-02-02T21:39:00.369Z,91.80
2018-02-02T21:41:26.445Z,91.63
2018-02-02T21:43:52.440Z,91.68
2018-02-02T21:46:18.541Z,91.68
2018-02-02T21:48:44.600Z,91.74
2018-02-02T21:51:10.720Z,91.53
2018-02-02T21:53:36.811Z,91.39
2018-02-02T21:56:02.865Z,91.46
2018-02-02T21:58:28.882Z,91.19
2018-02-02T22:00:54.970Z,91.06
2018-02-02T22:03:21.033Z,90.82
2018-02-02T22:05:49.734Z,90.88
2018-02-02T22:08:15.999Z,91.13
2018-02-02T22:10:42.110Z,91.47
2018-02-02T22:13:08.133Z,91.36
2018-02-02T22:15:35.043Z,90.99
2018-02-02T22:18:01.098Z,90.99
2018-02-02T22:20:27.151Z,90.81
2018-02-02T22:22:53.176Z,90.52
2018-02-02T22:25:19.176Z,90.61
2018-02-02T22:27:45.209Z,90.32
2018-02-02T22:30:11.244Z,90.50
2018-02-02T22:32:37.338Z,90.53
2018-02-02T22:35:03.708Z,90.42
2018-02-02T22:37:29.799Z,90.31
2018-02-02T22:39:55.878Z,90.26
2018-02-02T22:42:21.990Z,90.17
2018-02-02T22:44:48.036Z,90.25
2018-02-02T22:47:14.153Z,90.80
2018-02-02T22:49:40.231Z,90.66
2018-02-02T22:52:06.457Z,90.61
2018-02-02T22:54:33.594Z,90.05
2018-02-02T22:56:59.618Z,90.20
2018-02-02T22:59:25.956Z,90.67
2018-02-02T23:01:51.976Z,91.47
2018-02-02T23:04:18.117Z,91.17
2018-02-02T23:06:44.141Z,91.73
2018-02-02T23:09:10.189Z,91.85
2018-02-02T23:11:36.371Z,92.11
2018-02-02T23:14:02.418Z,92.04
2018-02-02T23:16:28.454Z,92.05
2018-02-02T23:18:54.467Z,92.17
2018-02-02T23:21:20.644Z,92.46
2018-02-02T23:23:46.881Z,92.65
2018-02-02T23:26:12.892Z,92.88
2018-02-02T23:28:38.948Z,93.25
2018-02-02T23:31:15.370Z,93.21
2018-02-02T23:33:41.393Z,93.56
2018-02-02T23:36:07.422Z,93.40
2018-02-02T23:38:33.424Z,93.07
2018-02-02T23:40:59.496Z,93.15
2018-02-02T23:43:25.489Z,93.13
2018-02-02T23:45:51.560Z,93.23
2018-02-02T23:48:17.596Z,93.43
2018-02-02T23:50:43.621Z,93.33
2018-02-02T23:53:09.631Z,93.25
2018-02-02T23:55:36.320Z,93.47
2018-02-02T23:58:02.294Z,93.79
